Detalii statie TRANSAVIA GRUP [00001CF7]

Toti senzorii

Date Temperatura solului [C]Precipitatii [mm]Voltaj baterie [mV]HC Air temperature [C]HC Relative humidity [%]Punctul de roua [C]
medieminmaxsumaultimamedieminmaxmediemediemin
2020-06-02 08:00:00 13.7 13.7 13.9 0 7000 10.66 10.04 11.3 0 0 0
2020-06-02 09:00:00 13.7 13.6 13.8 0 7186 11.43 10.96 12.27 0 0 0
2020-06-02 10:00:00 13.7 13.6 13.9 0 7206 12.52 12.26 12.99 0 0 0
2020-06-02 11:00:00 13.8 13.7 13.9 0 7246 13.98 12.43 16.58 0 0 0
2020-06-02 12:00:00 13.9 13.8 14.1 0 7304 13.7 13.05 14.69 0 0 0
2020-06-02 13:00:00 14.1 14 14.3 0 7314 14.7 13.29 16.68 0 0 0
2020-06-02 14:00:00 14.3 14.2 14.5 0 7324 14.35 12.52 16.81 0 0 0
2020-06-02 15:00:00 14.7 14.5 14.9 0 7304 16.09 15.37 17.47 0 0 0
2020-06-02 16:00:00 14.9 14.8 15.2 0 7324 13.87 13.04 15.3 0 0 0
2020-06-02 17:00:00 15.2 15 15.4 0.4 7314 14.75 13.43 16.19 0 0 0
2020-06-02 18:00:00 15.4 15.3 15.6 0 7294 15.57 14.87 16.36 0 0 0
2020-06-02 19:00:00 15.5 15.4 15.7 0 7020 15.17 14.24 16.23 0 0 0
2020-06-02 20:00:00 15.6 15.5 15.8 0 7000 13.61 13.02 14.02 0 0 0
2020-06-02 21:00:00 15.6 15.6 15.8 0 6914 11.89 10.42 13.22 0 0 0
2020-06-02 22:00:00 15.5 15.4 15.6 0 6894 9.83 9.08 10.62 0 0 0
2020-06-02 23:00:00 15.4 15.3 15.5 0 6884 8 7.04 9.07 0 0 0
2020-06-03 00:00:00 15.1 15 15.3 0 6874 6.47 5.97 7.13 0 0 0
2020-06-03 01:00:00 14.9 14.8 15.2 0 6844 7.05 6.34 7.87 0 0 0
2020-06-03 02:00:00 14.8 14.6 15 0 6834 7.64 7.48 7.83 0 0 0
2020-06-03 03:00:00 14.5 14.4 14.8 0 6834 7.88 7.61 8.11 0 0 0
2020-06-03 04:00:00 14.3 14.2 14.6 0 6826 7.58 6.69 8.12 0 0 0
2020-06-03 05:00:00 14.3 14.2 14.4 0 6816 6.82 6.54 7.23 0 0 0
2020-06-03 06:00:00 14.1 13.9 14.3 0 6806 7.5 7.21 7.75 0 0 0
2020-06-03 07:00:00 14 13.9 14.1 0 6816 8.22 7.87 8.94 0 0 0
2020-06-03 08:00:00 13.9 13.8 14 0 6942 10.19 9.08 11.37 0 0 0
2020-06-03 09:00:00 13.8 13.7 14 0 7030 12.72 11.15 13.52 0 0 0
2020-06-03 10:00:00 13.8 13.7 14 0 7314 14.6 14.01 15.33 0 0 0
2020-06-03 11:00:00 13.8 13.7 14 0 7314 16.29 15.61 17.01 0.7 0
2020-06-03 12:00:00 13.9 13.8 14.1 0 7314 17.41 16.58 18.1 0.33 0
2020-06-03 13:00:00 14.1 13.9 14.4 0 7314 19 18.28 20.03 6.18 -14.1 0
2020-06-03 14:00:00 14.4 14.2 14.6 0 7314 18.8 17.71 20.3 3.12 0
2020-06-03 15:00:00 14.8 14.6 15.1 0 7294 18.63 17.18 20.7 7.19 -1.9 0
2020-06-03 16:00:00 15.2 15.1 15.5 0 7314 18.48 16.85 20.13 41.95 5 3.2
2020-06-03 17:00:00 15.5 15.4 15.8 0 7314 17.68 16.94 18.68 44.49 5.3 4.4
2020-06-03 18:00:00 15.8 15.7 16 0 7166 18.86 16.6 20.03 35.92 3 0.9
2020-06-03 19:00:00 16 15.9 16.1 0 7216 16.56 15.86 17.59 46.65 4.8 3.8
2020-06-03 20:00:00 16 15.9 16.2 0 7020 17.29 16.41 18.02 42.92 4.3 3.1
2020-06-03 21:00:00 16 15.9 16.2 0 6914 15.6 15.08 16.05 62.67 7.9 5.6
2020-06-03 22:00:00 15.9 15.8 16 0 6904 14.57 13.84 15.09 63.48 7.5 7.1
2020-06-03 23:00:00 15.8 15.7 16 0 6894 13.28 12.25 13.8 74.91 8.7 7.6
2020-06-04 00:00:00 15.7 15.7 15.9 0 6874 11.62 10.43 12.19 90.08 9.9 9.6
2020-06-04 01:00:00 15.6 15.6 15.8 0 6834 9.14 8.25 10.55 16.53 1.7 0
2020-06-04 02:00:00 15.4 15.3 15.6 0 6834 7.47 6.87 8.4 0 0 0
2020-06-04 03:00:00 15.2 15.1 15.4 0 6826 6.33 5.72 6.93 0 0 0
2020-06-04 04:00:00 15 14.9 15.2 0 6816 5.58 5.07 6.06 0 0 0
2020-06-04 05:00:00 14.8 14.6 15 0 6796 4.96 4.52 5.47 0 0 0
2020-06-04 06:00:00 14.6 14.4 14.8 0 6786 4.59 3.84 5.33 0 0 0
2020-06-04 07:00:00 14.3 14.2 14.5 0 6834 6.47 5.65 7.36 0 0 0